createdAt,value
2019-05-10T00:02:08.061Z,11.60
2019-05-10T00:04:53.378Z,11.60
2019-05-10T00:07:38.087Z,11.60
2019-05-10T00:10:05.120Z,11.60
2019-05-10T00:12:51.075Z,11.50
2019-05-10T00:15:19.149Z,11.50
2019-05-10T00:17:46.008Z,11.50
2019-05-10T00:20:12.372Z,11.50
2019-05-10T00:22:38.532Z,11.50
2019-05-10T00:25:05.780Z,11.50
2019-05-10T00:27:32.043Z,11.50
2019-05-10T00:29:58.293Z,11.40
2019-05-10T00:32:25.561Z,11.50
2019-05-10T00:34:51.727Z,11.50
2019-05-10T00:37:17.901Z,11.60
2019-05-10T00:39:44.050Z,11.50
2019-05-10T00:42:10.209Z,11.40
2019-05-10T00:44:36.355Z,11.40
2019-05-10T00:47:02.899Z,11.40
2019-05-10T00:49:29.057Z,11.40
2019-05-10T00:51:55.299Z,11.40
2019-05-10T00:54:21.458Z,11.40
2019-05-10T00:56:47.597Z,11.30
2019-05-10T00:59:13.754Z,11.20
2019-05-10T01:01:39.933Z,11.20
2019-05-10T01:04:06.093Z,11.40
2019-05-10T01:06:32.247Z,11.30
2019-05-10T01:08:58.399Z,11.20
2019-05-10T01:11:25.872Z,11.20
2019-05-10T01:13:52.132Z,11.20
2019-05-10T01:16:18.274Z,11.30
2019-05-10T01:18:44.423Z,11.20
2019-05-10T01:21:10.575Z,11.20
2019-05-10T01:23:36.745Z,11.20
2019-05-10T01:26:03.001Z,11.30
2019-05-10T01:28:29.158Z,11.30
2019-05-10T01:30:55.304Z,11.30
2019-05-10T01:33:21.474Z,11.40
2019-05-10T01:35:47.618Z,11.30
2019-05-10T01:38:13.799Z,11.30
2019-05-10T01:40:40.182Z,11.30
2019-05-10T01:43:06.338Z,11.40
2019-05-10T01:45:32.758Z,11.40
2019-05-10T01:47:58.912Z,11.40
2019-05-10T01:50:25.060Z,11.40
2019-05-10T01:52:51.201Z,11.30
2019-05-10T01:55:17.673Z,11.40
2019-05-10T01:57:43.811Z,11.40
2019-05-10T02:00:11.363Z,11.30
2019-05-10T02:02:37.523Z,11.30
2019-05-10T02:05:04.965Z,11.40
2019-05-10T02:07:31.116Z,11.40
2019-05-10T02:09:57.272Z,11.40
2019-05-10T02:12:23.433Z,11.40
2019-05-10T02:14:49.898Z,11.40
2019-05-10T02:17:16.103Z,11.40
2019-05-10T02:19:42.275Z,11.40
2019-05-10T02:22:08.421Z,11.40
2019-05-10T02:24:34.872Z,11.50
2019-05-10T02:27:01.301Z,11.40
2019-05-10T02:29:27.484Z,11.40
2019-05-10T02:31:53.648Z,11.40
2019-05-10T02:34:20.113Z,11.40
2019-05-10T02:36:46.294Z,11.40
2019-05-10T02:39:12.507Z,11.40
2019-05-10T02:41:38.664Z,11.40
2019-05-10T02:44:05.015Z,11.40
2019-05-10T02:46:31.378Z,11.50
2019-05-10T02:48:57.513Z,11.20
2019-05-10T02:51:23.659Z,11.30
2019-05-10T02:53:50.205Z,11.30
2019-05-10T02:56:29.680Z,11.30
2019-05-10T02:58:45.198Z,11.30
2019-05-10T03:01:12.469Z,11.10
2019-05-10T03:03:38.915Z,11.30
2019-05-10T03:06:05.768Z,11.20
2019-05-10T03:08:50.138Z,11.10
2019-05-10T03:11:16.828Z,11.20
2019-05-10T03:13:48.233Z,11.10
2019-05-10T03:16:17.297Z,11.20
2019-05-10T03:18:46.291Z,11.30
2019-05-10T03:21:16.214Z,11.30
2019-05-10T03:23:42.357Z,11.20
2019-05-10T03:26:08.513Z,11.10
2019-05-10T03:28:35.656Z,11.10
2019-05-10T03:31:02.021Z,11.10
2019-05-10T03:33:28.500Z,11.10
2019-05-10T03:35:54.643Z,11.00
2019-05-10T03:38:21.182Z,10.90
2019-05-10T03:40:47.333Z,10.80
2019-05-10T03:43:13.518Z,10.90
2019-05-10T03:45:39.677Z,10.80
2019-05-10T03:48:05.826Z,10.80
2019-05-10T03:50:32.290Z,10.90
2019-05-10T03:52:58.453Z,10.70
2019-05-10T03:55:24.593Z,10.80
2019-05-10T03:57:51.069Z,10.80
2019-05-10T04:00:17.507Z,10.80
2019-05-10T04:02:43.667Z,10.70
2019-05-10T04:05:10.210Z,10.80
2019-05-10T04:07:37.358Z,10.90
2019-05-10T04:10:04.829Z,10.90
2019-05-10T04:12:31.009Z,10.90
2019-05-10T04:14:57.150Z,10.80
2019-05-10T04:17:23.379Z,10.80
2019-05-10T04:19:49.694Z,10.90
2019-05-10T04:22:15.857Z,10.80
2019-05-10T04:24:43.101Z,10.90
2019-05-10T04:27:09.251Z,10.90
2019-05-10T04:29:35.515Z,11.00
2019-05-10T04:32:01.789Z,10.80
2019-05-10T04:34:28.192Z,10.80
2019-05-10T04:36:54.349Z,10.90
2019-05-10T04:39:20.757Z,10.90
2019-05-10T04:41:46.903Z,10.90
2019-05-10T04:44:13.066Z,10.90
2019-05-10T04:46:39.228Z,10.90
2019-05-10T04:49:05.448Z,10.90
2019-05-10T04:51:31.626Z,10.90
2019-05-10T04:53:57.755Z,11.00
2019-05-10T04:56:23.907Z,11.00
2019-05-10T04:58:50.078Z,11.10
2019-05-10T05:01:16.305Z,10.90
2019-05-10T05:03:42.936Z,11.10
2019-05-10T05:06:08.976Z,11.20
2019-05-10T05:08:35.266Z,11.10
2019-05-10T05:11:01.304Z,11.10
2019-05-10T05:13:27.351Z,11.20
2019-05-10T05:15:53.405Z,11.10
2019-05-10T05:18:20.684Z,11.20
2019-05-10T05:20:47.052Z,11.20
2019-05-10T05:23:15.340Z,11.10
2019-05-10T05:25:41.861Z,11.20
2019-05-10T05:28:08.607Z,11.20
2019-05-10T05:30:38.533Z,11.20
2019-05-10T05:33:02.996Z,11.30
2019-05-10T05:35:29.055Z,11.30
2019-05-10T05:37:55.230Z,11.30
2019-05-10T05:40:21.356Z,11.40
2019-05-10T05:42:51.561Z,11.50
2019-05-10T05:45:17.587Z,11.60
2019-05-10T05:47:44.903Z,11.60
2019-05-10T05:50:13.026Z,11.70
2019-05-10T05:52:39.079Z,11.80
2019-05-10T05:55:06.096Z,11.90
2019-05-10T05:57:32.124Z,12.00
2019-05-10T06:00:04.010Z,12.10
2019-05-10T06:02:26.339Z,12.20
2019-05-10T06:04:52.674Z,12.30
2019-05-10T06:07:19.019Z,12.20
2019-05-10T06:09:47.030Z,12.20
2019-05-10T06:12:14.277Z,12.20
2019-05-10T06:14:42.992Z,11.90
2019-05-10T06:17:08.723Z,11.90
2019-05-10T06:19:34.752Z,11.80
2019-05-10T06:22:04.782Z,11.70
2019-05-10T06:24:28.710Z,11.90
2019-05-10T06:26:58.199Z,11.70
2019-05-10T06:29:22.902Z,11.90
2019-05-10T06:31:48.931Z,11.80
2019-05-10T06:34:14.968Z,11.80
2019-05-10T06:36:40.990Z,11.80
2019-05-10T06:39:07.049Z,11.80
2019-05-10T06:41:33.060Z,11.80
2019-05-10T06:43:59.101Z,11.90
2019-05-10T06:46:29.671Z,12.00
2019-05-10T06:48:53.092Z,11.80
2019-05-10T06:51:19.419Z,11.80
2019-05-10T06:53:51.974Z,11.90
2019-05-10T06:56:13.432Z,11.90
2019-05-10T06:58:39.602Z,11.90
2019-05-10T07:01:05.630Z,11.90
2019-05-10T07:03:31.679Z,11.90
2019-05-10T07:05:57.699Z,11.80
2019-05-10T07:08:24.031Z,11.70
2019-05-10T07:13:17.940Z,11.70
2019-05-10T07:15:44.829Z,11.90
2019-05-10T07:18:11.112Z,11.80
2019-05-10T07:20:37.430Z,12.10
2019-05-10T07:23:06.242Z,12.30
2019-05-10T07:25:37.648Z,12.80
2019-05-10T07:28:00.871Z,13.00
2019-05-10T07:30:28.510Z,13.40
2019-05-10T07:32:59.598Z,13.80
2019-05-10T07:35:22.707Z,14.30
2019-05-10T07:37:51.887Z,14.20
2019-05-10T07:40:16.818Z,14.30
2019-05-10T07:42:45.617Z,14.30
2019-05-10T07:45:11.364Z,14.20
2019-05-10T07:47:37.546Z,14.10
2019-05-10T07:50:09.744Z,14.00
2019-05-10T07:52:40.488Z,13.80
2019-05-10T07:55:01.461Z,14.20
2019-05-10T07:57:29.499Z,14.10
2019-05-10T07:59:57.593Z,14.30
2019-05-10T08:02:24.211Z,14.00
2019-05-10T08:04:53.441Z,13.90
2019-05-10T08:07:19.853Z,13.60
2019-05-10T08:09:46.765Z,13.50
2019-05-10T08:12:14.173Z,13.50
2019-05-10T08:14:44.510Z,13.50
2019-05-10T08:17:09.033Z,13.60
2019-05-10T08:19:37.525Z,13.90
2019-05-10T08:22:04.493Z,14.60
2019-05-10T08:24:35.150Z,14.70
2019-05-10T08:27:08.008Z,15.20
2019-05-10T08:29:26.627Z,15.30
2019-05-10T08:31:55.788Z,15.30
2019-05-10T08:34:22.723Z,15.00
2019-05-10T08:36:48.686Z,15.60
2019-05-10T08:39:15.044Z,15.70
2019-05-10T08:41:42.897Z,15.20
2019-05-10T08:44:16.575Z,15.60
2019-05-10T08:46:41.303Z,15.30
2019-05-10T08:49:05.822Z,14.80
2019-05-10T08:51:32.331Z,14.50
2019-05-10T08:54:01.605Z,14.60
2019-05-10T08:56:27.696Z,14.30
2019-05-10T08:58:53.942Z,14.50
2019-05-10T09:01:27.586Z,14.60
2019-05-10T09:03:55.238Z,14.60
2019-05-10T09:06:17.010Z,14.60
2019-05-10T09:08:43.436Z,14.40
2019-05-10T09:11:09.578Z,14.10
2019-05-10T09:13:40.987Z,14.20
2019-05-10T09:16:03.790Z,14.60
2019-05-10T09:18:29.923Z,14.60
2019-05-10T09:21:00.460Z,14.30
2019-05-10T09:23:25.692Z,14.40
2019-05-10T09:25:52.023Z,14.50
2019-05-10T09:28:18.246Z,14.30
2019-05-10T09:30:56.238Z,14.40
2019-05-10T09:33:14.222Z,14.30
2019-05-10T09:35:47.095Z,14.20
2019-05-10T09:38:08.267Z,14.50
2019-05-10T09:40:34.858Z,14.70
2019-05-10T09:43:07.519Z,14.70
2019-05-10T09:45:29.002Z,14.70
2019-05-10T09:47:55.041Z,14.90
2019-05-10T09:50:22.930Z,14.80
2019-05-10T09:52:49.087Z,14.90
2019-05-10T09:55:17.551Z,15.00
2019-05-10T09:57:43.283Z,14.90
2019-05-10T10:00:09.720Z,14.90
2019-05-10T10:02:37.303Z,14.90
2019-05-10T10:05:07.007Z,14.90
2019-05-10T10:07:33.697Z,14.50
2019-05-10T10:10:00.935Z,14.40
2019-05-10T10:12:28.944Z,14.40
2019-05-10T10:14:54.981Z,14.40
2019-05-10T10:17:21.139Z,14.10
2019-05-10T10:19:48.002Z,14.10
2019-05-10T10:22:14.728Z,14.00
2019-05-10T10:24:41.272Z,13.90
2019-05-10T10:27:07.573Z,14.00
2019-05-10T10:29:35.964Z,14.10
2019-05-10T10:32:01.810Z,14.00
2019-05-10T10:34:32.659Z,14.30
2019-05-10T10:36:58.039Z,14.60
2019-05-10T10:39:24.478Z,14.70
2019-05-10T10:41:52.184Z,15.00
2019-05-10T10:44:18.981Z,15.10
2019-05-10T10:46:47.747Z,15.00
2019-05-10T10:49:14.549Z,14.90
2019-05-10T10:51:41.009Z,15.30
2019-05-10T10:54:07.494Z,15.60
2019-05-10T10:56:37.410Z,15.80
2019-05-10T10:59:04.038Z,15.70
2019-05-10T11:01:46.204Z,15.80
2019-05-10T11:04:03.717Z,15.30
2019-05-10T11:06:27.177Z,15.10
2019-05-10T11:08:53.339Z,15.00
2019-05-10T11:11:19.920Z,15.00
2019-05-10T11:13:57.313Z,15.10
2019-05-10T11:16:15.743Z,15.40
2019-05-10T11:18:42.128Z,15.20
2019-05-10T11:21:08.582Z,15.10
2019-05-10T11:23:39.207Z,15.00
2019-05-10T11:26:02.981Z,14.90
2019-05-10T11:28:38.196Z,14.90
2019-05-10T11:30:57.377Z,14.70
2019-05-10T11:33:29.336Z,14.70
2019-05-10T11:35:51.610Z,14.70
2019-05-10T11:38:17.766Z,14.90
2019-05-10T11:40:44.215Z,14.50
2019-05-10T11:43:10.778Z,14.60
2019-05-10T11:45:36.933Z,14.50
2019-05-10T11:48:03.227Z,14.80
2019-05-10T11:50:34.919Z,14.80
2019-05-10T11:52:57.439Z,14.70
2019-05-10T11:55:23.586Z,14.80
2019-05-10T11:59:04.539Z,14.70
2019-05-10T12:00:25.596Z,14.70
2019-05-10T12:03:03.378Z,14.40
2019-05-10T12:05:19.856Z,14.10
2019-05-10T12:07:46.019Z,14.20
2019-05-10T12:10:20.728Z,14.00
2019-05-10T12:12:54.421Z,13.70
2019-05-10T12:15:13.773Z,13.70
2019-05-10T12:17:46.348Z,13.80
2019-05-10T12:20:12.560Z,13.80
2019-05-10T12:22:42.058Z,13.60
2019-05-10T12:25:28.309Z,13.70
2019-05-10T12:27:44.349Z,13.50
2019-05-10T12:30:05.245Z,13.40
2019-05-10T12:32:35.809Z,13.60
2019-05-10T12:35:01.314Z,13.70
2019-05-10T12:37:27.492Z,14.10
2019-05-10T12:39:53.642Z,14.20
2019-05-10T12:42:21.849Z,14.30
2019-05-10T12:44:48.367Z,14.60
2019-05-10T12:47:14.701Z,14.70
2019-05-10T12:49:41.080Z,14.80
2019-05-10T12:52:09.111Z,15.10
2019-05-10T12:54:35.649Z,15.40
2019-05-10T12:57:01.858Z,15.50
2019-05-10T12:59:34.419Z,15.30
2019-05-10T13:01:58.245Z,15.60
2019-05-10T13:04:39.401Z,15.40
2019-05-10T13:06:52.628Z,15.70
2019-05-10T13:09:34.638Z,15.90
2019-05-10T13:11:48.011Z,15.80
2019-05-10T13:14:14.156Z,15.80
2019-05-10T13:16:40.616Z,16.10
2019-05-10T13:19:06.807Z,16.00
2019-05-10T13:21:33.266Z,16.20
2019-05-10T13:23:59.417Z,15.40
2019-05-10T13:26:25.572Z,15.90
2019-05-10T13:28:51.720Z,15.60
2019-05-10T13:31:18.184Z,16.00
2019-05-10T13:33:44.479Z,15.90
2019-05-10T13:36:11.826Z,16.10
2019-05-10T13:38:43.954Z,16.10
2019-05-10T13:41:06.050Z,16.50
2019-05-10T13:43:32.209Z,16.30
2019-05-10T13:45:58.364Z,16.40
2019-05-10T13:48:26.423Z,16.40
2019-05-10T13:50:52.568Z,16.20
2019-05-10T13:53:21.085Z,15.80
2019-05-10T13:55:46.751Z,15.40
2019-05-10T13:58:12.988Z,15.60
2019-05-10T14:00:39.157Z,14.80
2019-05-10T14:03:11.360Z,13.50
2019-05-10T14:05:33.675Z,13.30
2019-05-10T14:08:00.083Z,13.10
2019-05-10T14:10:27.221Z,13.20
2019-05-10T14:12:56.159Z,13.20
2019-05-10T14:15:21.403Z,13.30
2019-05-10T14:17:47.800Z,13.50
2019-05-10T14:20:29.581Z,13.50
2019-05-10T14:22:42.298Z,13.60
2019-05-10T14:25:08.729Z,13.50
2019-05-10T14:27:36.038Z,13.60
2019-05-10T14:30:07.272Z,14.10
2019-05-10T14:32:32.672Z,14.00
2019-05-10T14:34:59.093Z,14.20
2019-05-10T14:37:25.266Z,14.40
2019-05-10T14:39:51.407Z,14.30
2019-05-10T14:42:23.912Z,14.20
2019-05-10T14:44:46.005Z,14.60
2019-05-10T14:47:12.160Z,15.00
2019-05-10T14:49:42.090Z,15.00
2019-05-10T14:52:06.359Z,15.30
2019-05-10T14:54:43.192Z,15.60
2019-05-10T14:57:00.568Z,15.60
2019-05-10T14:59:26.805Z,15.60
2019-05-10T15:01:53.339Z,15.40
2019-05-10T15:04:43.708Z,15.40
2019-05-10T15:06:48.528Z,15.40
2019-05-10T15:09:23.802Z,15.30
2019-05-10T15:11:42.727Z,15.20
2019-05-10T15:14:09.273Z,15.10
2019-05-10T15:16:35.557Z,14.70
2019-05-10T15:19:01.712Z,14.80
2019-05-10T15:21:27.843Z,14.90
2019-05-10T15:23:55.379Z,14.90
2019-05-10T15:26:22.369Z,15.10
2019-05-10T15:28:48.521Z,15.00
2019-05-10T15:31:15.468Z,15.20
2019-05-10T15:33:41.734Z,15.00
2019-05-10T15:36:07.873Z,14.90
2019-05-10T15:38:40.544Z,14.60
2019-05-10T15:41:02.126Z,14.60
2019-05-10T15:43:28.282Z,14.50
2019-05-10T15:45:54.961Z,14.70
2019-05-10T15:48:21.392Z,14.50
2019-05-10T15:50:47.524Z,14.50
2019-05-10T15:53:13.706Z,14.50
2019-05-10T15:55:39.911Z,14.20
2019-05-10T15:58:06.070Z,14.00
2019-05-10T16:00:39.325Z,13.70
2019-05-10T16:03:00.303Z,12.80
2019-05-10T16:05:42.418Z,12.50
2019-05-10T16:07:54.509Z,11.90
2019-05-10T16:10:20.659Z,11.60
2019-05-10T16:12:46.799Z,11.30
2019-05-10T16:15:19.757Z,11.40
2019-05-10T16:17:42.079Z,11.60
2019-05-10T16:20:08.534Z,11.50
2019-05-10T16:22:34.690Z,11.70
2019-05-10T16:25:02.669Z,11.70
2019-05-10T16:27:33.937Z,11.60
2019-05-10T16:29:57.297Z,11.60
2019-05-10T16:32:29.379Z,11.70
2019-05-10T16:34:51.495Z,11.80
2019-05-10T16:37:17.644Z,11.70
2019-05-10T16:39:43.815Z,11.90
2019-05-10T16:42:09.957Z,11.80
2019-05-10T16:44:36.103Z,11.90
2019-05-10T16:47:02.252Z,12.00
2019-05-10T16:49:28.425Z,12.10
2019-05-10T16:51:54.562Z,12.30
2019-05-10T16:54:25.405Z,12.30
2019-05-10T16:56:51.776Z,12.20
2019-05-10T16:59:18.230Z,12.20
2019-05-10T17:01:44.639Z,12.20
2019-05-10T17:04:11.063Z,12.20
2019-05-10T17:06:40.393Z,12.00
2019-05-10T17:09:09.306Z,12.20
2019-05-10T17:11:34.446Z,12.50
2019-05-10T17:14:01.199Z,12.20
2019-05-10T17:16:27.356Z,12.20
2019-05-10T17:18:55.405Z,12.40
2019-05-10T17:21:21.588Z,12.40
2019-05-10T17:23:48.606Z,12.40
2019-05-10T17:26:15.079Z,12.30
2019-05-10T17:28:42.323Z,12.40
2019-05-10T17:31:09.752Z,12.00
2019-05-10T17:33:36.778Z,12.10
2019-05-10T17:36:08.368Z,12.20
2019-05-10T17:38:32.191Z,12.10
2019-05-10T17:40:58.349Z,12.10
2019-05-10T17:43:24.523Z,12.20
2019-05-10T17:45:50.975Z,12.20
2019-05-10T17:48:17.132Z,12.10
2019-05-10T17:50:45.571Z,12.10
2019-05-10T17:53:11.434Z,12.00
2019-05-10T17:55:37.597Z,12.10
2019-05-10T17:58:03.959Z,12.30
2019-05-10T18:00:30.115Z,12.30
2019-05-10T18:02:56.502Z,12.40
2019-05-10T18:05:22.635Z,12.40
2019-05-10T18:07:49.081Z,12.30
2019-05-10T18:10:15.649Z,12.30
2019-05-10T18:12:42.051Z,12.10
2019-05-10T18:15:08.598Z,12.00
2019-05-10T18:17:35.093Z,12.10
2019-05-10T18:20:02.346Z,12.20
2019-05-10T18:22:29.854Z,12.00
2019-05-10T18:24:55.979Z,12.10
2019-05-10T18:27:22.134Z,12.00
2019-05-10T18:29:48.290Z,12.00
2019-05-10T18:32:14.459Z,11.80
2019-05-10T18:34:40.613Z,11.50
2019-05-10T18:37:06.772Z,11.40
2019-05-10T18:39:32.919Z,11.30
2019-05-10T18:41:59.109Z,11.20
2019-05-10T18:44:25.239Z,11.30
2019-05-10T18:46:51.403Z,11.40
2019-05-10T18:49:17.536Z,11.50
2019-05-10T18:51:43.679Z,11.50
2019-05-10T18:54:09.846Z,11.40
2019-05-10T18:56:36.324Z,11.10
2019-05-10T18:59:07.489Z,11.20
2019-05-10T19:01:32.952Z,11.40
2019-05-10T19:03:59.309Z,11.50
2019-05-10T19:06:25.447Z,11.40
2019-05-10T19:08:51.836Z,11.60
2019-05-10T19:11:18.103Z,11.60
2019-05-10T19:13:47.983Z,11.50
2019-05-10T19:16:13.599Z,11.20
2019-05-10T19:18:39.762Z,11.20
2019-05-10T19:21:05.916Z,11.30
2019-05-10T19:23:32.175Z,11.30
2019-05-10T19:25:58.550Z,11.20
2019-05-10T19:28:26.988Z,11.30
2019-05-10T19:30:58.461Z,11.10
2019-05-10T19:33:20.918Z,10.90
2019-05-10T19:35:47.068Z,10.90
2019-05-10T19:38:13.211Z,10.90
2019-05-10T19:40:39.600Z,11.00
2019-05-10T19:43:05.767Z,11.00
2019-05-10T19:45:32.015Z,10.80
2019-05-10T19:47:58.183Z,10.60
2019-05-10T19:50:31.071Z,10.80
2019-05-10T19:52:52.509Z,10.80
2019-05-10T19:55:21.688Z,10.80
2019-05-10T19:57:49.586Z,10.70
2019-05-10T20:00:15.605Z,10.70
2019-05-10T20:02:41.734Z,10.60
2019-05-10T20:05:08.547Z,10.70
2019-05-10T20:07:45.145Z,10.70
2019-05-10T20:10:07.380Z,10.80
2019-05-10T20:12:32.458Z,10.80
2019-05-10T20:14:59.119Z,10.70
2019-05-10T20:17:25.315Z,10.80
2019-05-10T20:19:51.848Z,10.80
2019-05-10T20:22:18.432Z,10.80
2019-05-10T20:24:45.028Z,10.80
2019-05-10T20:27:11.377Z,10.60
2019-05-10T20:29:37.704Z,10.70
2019-05-10T20:32:04.200Z,10.70
2019-05-10T20:34:30.564Z,10.70
2019-05-10T20:36:57.878Z,10.60
2019-05-10T20:39:24.048Z,10.60
2019-05-10T20:41:50.475Z,10.60
2019-05-10T20:44:17.981Z,10.60
2019-05-10T20:46:44.760Z,10.60
2019-05-10T20:49:11.247Z,10.70
2019-05-10T20:51:37.475Z,10.70
2019-05-10T20:54:03.717Z,10.80
2019-05-10T20:56:30.741Z,10.80
2019-05-10T20:58:57.139Z,10.80
2019-05-10T21:01:23.722Z,10.90
2019-05-10T21:03:50.443Z,10.90
2019-05-10T21:06:16.697Z,10.90
2019-05-10T21:08:43.266Z,11.00
2019-05-10T21:11:09.807Z,10.90
2019-05-10T21:13:35.955Z,10.90
2019-05-10T21:16:03.139Z,10.90
2019-05-10T21:18:29.584Z,10.90
2019-05-10T21:20:55.927Z,10.80
2019-05-10T21:23:22.152Z,10.80
2019-05-10T21:25:48.390Z,10.80
2019-05-10T21:28:14.536Z,10.80
2019-05-10T21:30:40.787Z,10.80
2019-05-10T21:33:08.530Z,10.80
2019-05-10T21:35:35.212Z,10.80
2019-05-10T21:38:01.386Z,10.80
2019-05-10T21:40:27.615Z,10.80
2019-05-10T21:42:53.905Z,10.80
2019-05-10T21:45:20.600Z,10.70
2019-05-10T21:47:51.534Z,10.70
2019-05-10T21:50:14.816Z,10.70
2019-05-10T21:52:41.233Z,10.80
2019-05-10T21:55:07.677Z,10.80
2019-05-10T21:57:33.826Z,10.80
2019-05-10T21:59:59.960Z,10.70
2019-05-10T22:02:26.128Z,10.60
2019-05-10T22:04:52.372Z,10.60
2019-05-10T22:07:18.523Z,10.60
2019-05-10T22:09:44.663Z,10.60
2019-05-10T22:12:10.837Z,10.60
2019-05-10T22:14:36.975Z,10.50
2019-05-10T22:17:03.143Z,10.40
2019-05-10T22:19:29.317Z,10.40
2019-05-10T22:21:55.645Z,10.40
2019-05-10T22:24:21.941Z,10.40
2019-05-10T22:26:48.085Z,10.40
2019-05-10T22:29:14.250Z,10.60
2019-05-10T22:31:41.504Z,10.60
2019-05-10T22:34:08.658Z,10.60
2019-05-10T22:36:35.236Z,10.60
2019-05-10T22:39:06.905Z,10.50
2019-05-10T22:41:29.547Z,10.50
2019-05-10T22:43:55.715Z,10.50
2019-05-10T22:46:21.864Z,10.60
2019-05-10T22:48:48.007Z,10.60
2019-05-10T22:51:14.425Z,10.50
2019-05-10T22:53:40.580Z,10.50
2019-05-10T22:56:06.731Z,10.50
2019-05-10T22:58:32.992Z,10.40
2019-05-10T23:00:59.625Z,10.50
2019-05-10T23:03:25.769Z,10.60
2019-05-10T23:05:51.927Z,10.60
2019-05-10T23:08:17.964Z,10.60
2019-05-10T23:10:44.327Z,10.60
2019-05-10T23:13:10.658Z,10.60
2019-05-10T23:15:36.784Z,10.60
2019-05-10T23:18:02.818Z,10.70
2019-05-10T23:20:28.840Z,10.80
2019-05-10T23:22:54.888Z,10.80
2019-05-10T23:25:20.916Z,10.80
2019-05-10T23:27:46.963Z,10.70
2019-05-10T23:30:12.995Z,10.70
2019-05-10T23:32:39.140Z,10.70
2019-05-10T23:35:05.475Z,10.70
2019-05-10T23:37:31.487Z,10.70
2019-05-10T23:39:57.539Z,10.70
2019-05-10T23:42:23.700Z,10.60
2019-05-10T23:44:50.003Z,10.50
2019-05-10T23:47:16.014Z,10.50
2019-05-10T23:49:42.049Z,10.60
2019-05-10T23:52:08.730Z,10.70
2019-05-10T23:54:35.095Z,10.80
2019-05-10T23:57:01.438Z,10.70
2019-05-10T23:59:27.471Z,10.70
